sensor_id;sensor_type;location;lat;lon;timestamp;P1;durP1;ratioP1;P2;durP2;ratioP2
21148;SDS011;10732;51.472;6.466;2023-03-04T00:01:11;19.02;;;3.80;;
21148;SDS011;10732;51.472;6.466;2023-03-04T00:03:37;12.85;;;3.60;;
21148;SDS011;10732;51.472;6.466;2023-03-04T00:06:02;12.73;;;3.78;;
21148;SDS011;10732;51.472;6.466;2023-03-04T00:08:29;11.65;;;3.92;;
21148;SDS011;10732;51.472;6.466;2023-03-04T00:10:54;15.00;;;3.60;;
21148;SDS011;10732;51.472;6.466;2023-03-04T00:13:20;16.75;;;3.78;;
21148;SDS011;10732;51.472;6.466;2023-03-04T00:15:46;13.93;;;4.60;;
21148;SDS011;10732;51.472;6.466;2023-03-04T00:18:12;16.10;;;4.50;;
21148;SDS011;10732;51.472;6.466;2023-03-04T00:20:38;18.85;;;4.57;;
21148;SDS011;10732;51.472;6.466;2023-03-04T00:23:03;15.00;;;4.50;;
21148;SDS011;10732;51.472;6.466;2023-03-04T00:25:29;13.68;;;4.43;;
21148;SDS011;10732;51.472;6.466;2023-03-04T00:27:55;12.77;;;4.07;;
21148;SDS011;10732;51.472;6.466;2023-03-04T00:30:22;18.92;;;4.63;;
21148;SDS011;10732;51.472;6.466;2023-03-04T00:32:48;14.05;;;3.75;;
21148;SDS011;10732;51.472;6.466;2023-03-04T00:35:14;13.55;;;4.40;;
21148;SDS011;10732;51.472;6.466;2023-03-04T00:37:39;16.13;;;4.20;;
21148;SDS011;10732;51.472;6.466;2023-03-04T00:40:05;17.08;;;4.18;;
21148;SDS011;10732;51.472;6.466;2023-03-04T00:42:31;16.60;;;4.38;;
21148;SDS011;10732;51.472;6.466;2023-03-04T00:44:57;13.65;;;4.05;;
21148;SDS011;10732;51.472;6.466;2023-03-04T00:47:22;20.77;;;4.57;;
21148;SDS011;10732;51.472;6.466;2023-03-04T00:49:48;12.90;;;3.60;;
21148;SDS011;10732;51.472;6.466;2023-03-04T00:52:13;13.88;;;4.00;;
21148;SDS011;10732;51.472;6.466;2023-03-04T00:54:39;14.68;;;3.95;;
21148;SDS011;10732;51.472;6.466;2023-03-04T00:57:05;17.45;;;4.10;;
21148;SDS011;10732;51.472;6.466;2023-03-04T00:59:30;16.55;;;4.25;;
21148;SDS011;10732;51.472;6.466;2023-03-04T01:01:56;17.65;;;4.15;;
21148;SDS011;10732;51.472;6.466;2023-03-04T01:04:22;16.38;;;4.65;;
21148;SDS011;10732;51.472;6.466;2023-03-04T01:06:47;15.88;;;4.40;;
21148;SDS011;10732;51.472;6.466;2023-03-04T01:09:13;15.85;;;3.80;;
21148;SDS011;10732;51.472;6.466;2023-03-04T01:11:38;13.18;;;4.18;;
21148;SDS011;10732;51.472;6.466;2023-03-04T01:14:04;17.55;;;3.78;;
21148;SDS011;10732;51.472;6.466;2023-03-04T01:16:30;17.98;;;4.07;;
21148;SDS011;10732;51.472;6.466;2023-03-04T01:18:55;19.58;;;4.32;;
21148;SDS011;10732;51.472;6.466;2023-03-04T01:21:21;16.95;;;4.15;;
21148;SDS011;10732;51.472;6.466;2023-03-04T01:23:47;19.67;;;4.00;;
21148;SDS011;10732;51.472;6.466;2023-03-04T01:26:12;17.42;;;4.65;;
21148;SDS011;10732;51.472;6.466;2023-03-04T01:28:38;15.50;;;4.15;;
21148;SDS011;10732;51.472;6.466;2023-03-04T01:31:03;14.85;;;4.07;;
21148;SDS011;10732;51.472;6.466;2023-03-04T01:33:29;23.58;;;4.50;;
21148;SDS011;10732;51.472;6.466;2023-03-04T01:35:55;17.85;;;4.10;;
21148;SDS011;10732;51.472;6.466;2023-03-04T01:38:22;16.05;;;3.83;;
21148;SDS011;10732;51.472;6.466;2023-03-04T01:40:47;18.00;;;4.22;;
21148;SDS011;10732;51.472;6.466;2023-03-04T01:43:15;20.17;;;4.28;;
21148;SDS011;10732;51.472;6.466;2023-03-04T01:45:46;19.55;;;4.40;;
21148;SDS011;10732;51.472;6.466;2023-03-04T01:48:14;21.10;;;4.35;;
21148;SDS011;10732;51.472;6.466;2023-03-04T01:50:42;16.27;;;4.28;;
21148;SDS011;10732;51.472;6.466;2023-03-04T01:53:09;24.40;;;4.05;;
21148;SDS011;10732;51.472;6.466;2023-03-04T01:55:45;14.90;;;3.92;;
21148;SDS011;10732;51.472;6.466;2023-03-04T01:58:11;13.43;;;4.07;;
21148;SDS011;10732;51.472;6.466;2023-03-04T02:00:37;18.88;;;4.10;;
21148;SDS011;10732;51.472;6.466;2023-03-04T02:03:07;15.70;;;3.83;;
21148;SDS011;10732;51.472;6.466;2023-03-04T02:05:46;16.50;;;4.00;;
21148;SDS011;10732;51.472;6.466;2023-03-04T02:08:14;14.50;;;3.53;;
21148;SDS011;10732;51.472;6.466;2023-03-04T02:10:42;17.00;;;4.30;;
21148;SDS011;10732;51.472;6.466;2023-03-04T02:13:09;12.15;;;3.78;;
21148;SDS011;10732;51.472;6.466;2023-03-04T02:15:35;17.52;;;3.65;;
21148;SDS011;10732;51.472;6.466;2023-03-04T02:18:01;16.98;;;3.90;;
21148;SDS011;10732;51.472;6.466;2023-03-04T02:25:32;14.68;;;3.88;;
21148;SDS011;10732;51.472;6.466;2023-03-04T02:28:03;19.85;;;4.05;;
21148;SDS011;10732;51.472;6.466;2023-03-04T02:30:29;16.85;;;4.13;;
21148;SDS011;10732;51.472;6.466;2023-03-04T02:32:55;20.63;;;3.90;;
21148;SDS011;10732;51.472;6.466;2023-03-04T02:35:20;17.35;;;3.88;;
21148;SDS011;10732;51.472;6.466;2023-03-04T02:37:46;15.70;;;3.45;;
21148;SDS011;10732;51.472;6.466;2023-03-04T02:40:15;16.95;;;3.80;;
21148;SDS011;10732;51.472;6.466;2023-03-04T02:42:48;20.23;;;4.18;;
21148;SDS011;10732;51.472;6.466;2023-03-04T02:45:29;10.68;;;3.20;;
21148;SDS011;10732;51.472;6.466;2023-03-04T02:48:03;23.40;;;4.28;;
21148;SDS011;10732;51.472;6.466;2023-03-04T02:50:30;19.60;;;4.38;;
21148;SDS011;10732;51.472;6.466;2023-03-04T02:52:59;16.95;;;3.92;;
21148;SDS011;10732;51.472;6.466;2023-03-04T02:55:25;14.63;;;3.38;;
21148;SDS011;10732;51.472;6.466;2023-03-04T02:57:50;13.25;;;3.78;;
21148;SDS011;10732;51.472;6.466;2023-03-04T03:00:16;16.45;;;3.45;;
21148;SDS011;10732;51.472;6.466;2023-03-04T03:02:41;17.60;;;3.45;;
21148;SDS011;10732;51.472;6.466;2023-03-04T03:05:07;14.60;;;3.97;;
21148;SDS011;10732;51.472;6.466;2023-03-04T03:07:33;18.52;;;3.60;;
21148;SDS011;10732;51.472;6.466;2023-03-04T03:10:02;14.82;;;3.42;;
21148;SDS011;10732;51.472;6.466;2023-03-04T03:12:28;11.27;;;3.33;;
21148;SDS011;10732;51.472;6.466;2023-03-04T03:14:53;13.55;;;3.33;;
21148;SDS011;10732;51.472;6.466;2023-03-04T03:17:19;15.27;;;3.55;;
21148;SDS011;10732;51.472;6.466;2023-03-04T03:19:45;12.38;;;3.63;;
21148;SDS011;10732;51.472;6.466;2023-03-04T03:22:10;13.32;;;3.15;;
21148;SDS011;10732;51.472;6.466;2023-03-04T03:24:36;12.25;;;3.47;;
21148;SDS011;10732;51.472;6.466;2023-03-04T03:27:01;14.90;;;3.60;;
21148;SDS011;10732;51.472;6.466;2023-03-04T03:29:27;16.55;;;3.17;;
21148;SDS011;10732;51.472;6.466;2023-03-04T03:31:53;24.10;;;4.40;;
21148;SDS011;10732;51.472;6.466;2023-03-04T03:34:18;15.98;;;3.47;;
21148;SDS011;10732;51.472;6.466;2023-03-04T03:36:44;17.73;;;4.43;;
21148;SDS011;10732;51.472;6.466;2023-03-04T03:39:10;13.70;;;3.30;;
21148;SDS011;10732;51.472;6.466;2023-03-04T03:41:35;17.20;;;3.67;;
21148;SDS011;10732;51.472;6.466;2023-03-04T03:44:01;15.32;;;3.65;;
21148;SDS011;10732;51.472;6.466;2023-03-04T03:46:26;12.63;;;3.28;;
21148;SDS011;10732;51.472;6.466;2023-03-04T03:48:53;15.55;;;3.42;;
21148;SDS011;10732;51.472;6.466;2023-03-04T03:51:19;16.70;;;3.20;;
21148;SDS011;10732;51.472;6.466;2023-03-04T03:53:44;14.43;;;3.10;;
21148;SDS011;10732;51.472;6.466;2023-03-04T03:56:10;10.70;;;3.10;;
21148;SDS011;10732;51.472;6.466;2023-03-04T03:58:36;15.15;;;3.38;;
21148;SDS011;10732;51.472;6.466;2023-03-04T04:01:01;15.35;;;3.17;;
21148;SDS011;10732;51.472;6.466;2023-03-04T04:03:27;13.10;;;2.63;;
21148;SDS011;10732;51.472;6.466;2023-03-04T04:05:53;12.77;;;3.40;;
21148;SDS011;10732;51.472;6.466;2023-03-04T04:08:18;11.10;;;3.10;;
21148;SDS011;10732;51.472;6.466;2023-03-04T04:10:44;16.88;;;3.45;;
21148;SDS011;10732;51.472;6.466;2023-03-04T04:13:10;15.93;;;3.53;;
21148;SDS011;10732;51.472;6.466;2023-03-04T04:15:35;13.88;;;3.17;;
21148;SDS011;10732;51.472;6.466;2023-03-04T04:18:02;13.45;;;2.90;;
21148;SDS011;10732;51.472;6.466;2023-03-04T04:20:29;11.80;;;2.95;;
21148;SDS011;10732;51.472;6.466;2023-03-04T04:22:54;8.02;;;2.60;;
21148;SDS011;10732;51.472;6.466;2023-03-04T04:25:20;17.88;;;3.58;;
21148;SDS011;10732;51.472;6.466;2023-03-04T04:27:46;14.02;;;2.63;;
21148;SDS011;10732;51.472;6.466;2023-03-04T04:30:11;11.85;;;2.67;;
21148;SDS011;10732;51.472;6.466;2023-03-04T04:32:37;17.85;;;2.85;;
21148;SDS011;10732;51.472;6.466;2023-03-04T04:35:03;10.13;;;2.47;;
21148;SDS011;10732;51.472;6.466;2023-03-04T04:37:29;8.32;;;2.65;;
21148;SDS011;10732;51.472;6.466;2023-03-04T04:39:54;13.38;;;2.83;;
21148;SDS011;10732;51.472;6.466;2023-03-04T04:42:20;11.23;;;3.22;;
21148;SDS011;10732;51.472;6.466;2023-03-04T04:44:46;11.27;;;2.85;;
21148;SDS011;10732;51.472;6.466;2023-03-04T04:47:11;14.70;;;2.83;;
21148;SDS011;10732;51.472;6.466;2023-03-04T04:49:37;12.10;;;2.70;;
21148;SDS011;10732;51.472;6.466;2023-03-04T04:52:03;12.00;;;2.88;;
21148;SDS011;10732;51.472;6.466;2023-03-04T04:54:29;10.25;;;2.80;;
21148;SDS011;10732;51.472;6.466;2023-03-04T04:56:54;16.02;;;2.90;;
21148;SDS011;10732;51.472;6.466;2023-03-04T04:59:20;10.20;;;2.78;;
21148;SDS011;10732;51.472;6.466;2023-03-04T05:01:46;13.15;;;2.70;;
21148;SDS011;10732;51.472;6.466;2023-03-04T05:04:12;10.18;;;2.70;;
21148;SDS011;10732;51.472;6.466;2023-03-04T05:06:37;12.80;;;2.78;;
21148;SDS011;10732;51.472;6.466;2023-03-04T05:09:03;10.90;;;2.55;;
21148;SDS011;10732;51.472;6.466;2023-03-04T05:11:29;17.15;;;2.78;;
21148;SDS011;10732;51.472;6.466;2023-03-04T05:13:55;10.40;;;2.80;;
21148;SDS011;10732;51.472;6.466;2023-03-04T05:16:21;15.32;;;2.85;;
21148;SDS011;10732;51.472;6.466;2023-03-04T05:18:46;13.25;;;2.67;;
21148;SDS011;10732;51.472;6.466;2023-03-04T05:21:12;17.95;;;3.15;;
21148;SDS011;10732;51.472;6.466;2023-03-04T05:23:41;9.50;;;2.72;;
21148;SDS011;10732;51.472;6.466;2023-03-04T05:26:08;15.15;;;2.97;;
21148;SDS011;10732;51.472;6.466;2023-03-04T05:28:37;11.68;;;2.35;;
21148;SDS011;10732;51.472;6.466;2023-03-04T05:31:03;12.10;;;2.85;;
21148;SDS011;10732;51.472;6.466;2023-03-04T05:33:28;10.50;;;2.55;;
21148;SDS011;10732;51.472;6.466;2023-03-04T05:35:55;10.93;;;2.75;;
21148;SDS011;10732;51.472;6.466;2023-03-04T05:38:20;12.40;;;2.88;;
21148;SDS011;10732;51.472;6.466;2023-03-04T05:40:46;17.27;;;2.75;;
21148;SDS011;10732;51.472;6.466;2023-03-04T05:43:13;11.52;;;2.83;;
21148;SDS011;10732;51.472;6.466;2023-03-04T05:45:39;14.35;;;2.95;;
21148;SDS011;10732;51.472;6.466;2023-03-04T05:48:06;9.27;;;2.85;;
21148;SDS011;10732;51.472;6.466;2023-03-04T05:50:33;7.57;;;2.38;;
21148;SDS011;10732;51.472;6.466;2023-03-04T05:52:58;12.07;;;2.92;;
21148;SDS011;10732;51.472;6.466;2023-03-04T05:55:24;11.20;;;2.60;;
21148;SDS011;10732;51.472;6.466;2023-03-04T05:57:51;12.13;;;2.50;;
21148;SDS011;10732;51.472;6.466;2023-03-04T06:00:17;14.07;;;3.05;;
21148;SDS011;10732;51.472;6.466;2023-03-04T06:02:43;11.25;;;3.33;;
21148;SDS011;10732;51.472;6.466;2023-03-04T06:05:10;7.30;;;2.58;;
21148;SDS011;10732;51.472;6.466;2023-03-04T06:07:37;7.57;;;2.67;;
21148;SDS011;10732;51.472;6.466;2023-03-04T06:10:03;11.65;;;2.30;;
21148;SDS011;10732;51.472;6.466;2023-03-04T06:12:29;12.18;;;2.65;;
21148;SDS011;10732;51.472;6.466;2023-03-04T06:14:55;11.93;;;2.75;;
21148;SDS011;10732;51.472;6.466;2023-03-04T06:17:20;16.75;;;2.60;;
21148;SDS011;10732;51.472;6.466;2023-03-04T06:19:46;16.15;;;3.15;;
21148;SDS011;10732;51.472;6.466;2023-03-04T06:22:11;12.45;;;2.80;;
21148;SDS011;10732;51.472;6.466;2023-03-04T06:24:37;12.02;;;2.40;;
21148;SDS011;10732;51.472;6.466;2023-03-04T06:27:03;9.85;;;2.35;;
21148;SDS011;10732;51.472;6.466;2023-03-04T06:29:29;8.80;;;2.53;;
21148;SDS011;10732;51.472;6.466;2023-03-04T06:31:55;12.02;;;2.42;;
21148;SDS011;10732;51.472;6.466;2023-03-04T06:34:20;9.10;;;2.45;;
21148;SDS011;10732;51.472;6.466;2023-03-04T06:36:47;15.75;;;2.60;;
21148;SDS011;10732;51.472;6.466;2023-03-04T06:39:13;9.38;;;2.33;;
21148;SDS011;10732;51.472;6.466;2023-03-04T06:41:38;9.57;;;2.60;;
21148;SDS011;10732;51.472;6.466;2023-03-04T06:44:04;10.25;;;2.50;;
21148;SDS011;10732;51.472;6.466;2023-03-04T06:46:31;11.10;;;2.30;;
21148;SDS011;10732;51.472;6.466;2023-03-04T06:48:58;4.45;;;1.73;;
21148;SDS011;10732;51.472;6.466;2023-03-04T06:51:24;13.27;;;3.05;;
21148;SDS011;10732;51.472;6.466;2023-03-04T06:53:50;12.02;;;2.22;;
21148;SDS011;10732;51.472;6.466;2023-03-04T06:56:15;12.90;;;2.60;;
21148;SDS011;10732;51.472;6.466;2023-03-04T06:58:45;10.20;;;2.30;;
21148;SDS011;10732;51.472;6.466;2023-03-04T07:03:39;10.98;;;3.25;;
21148;SDS011;10732;51.472;6.466;2023-03-04T07:06:05;9.45;;;2.10;;
21148;SDS011;10732;51.472;6.466;2023-03-04T07:08:31;8.20;;;2.08;;
21148;SDS011;10732;51.472;6.466;2023-03-04T07:10:57;9.57;;;1.90;;
21148;SDS011;10732;51.472;6.466;2023-03-04T07:13:22;9.75;;;2.20;;
21148;SDS011;10732;51.472;6.466;2023-03-04T07:15:48;6.30;;;2.25;;
21148;SDS011;10732;51.472;6.466;2023-03-04T07:18:13;10.63;;;2.33;;
21148;SDS011;10732;51.472;6.466;2023-03-04T07:20:39;10.20;;;2.40;;
21148;SDS011;10732;51.472;6.466;2023-03-04T07:23:04;7.72;;;1.95;;
21148;SDS011;10732;51.472;6.466;2023-03-04T07:25:30;15.15;;;2.25;;
21148;SDS011;10732;51.472;6.466;2023-03-04T07:27:56;10.40;;;2.63;;
21148;SDS011;10732;51.472;6.466;2023-03-04T07:30:21;7.32;;;2.00;;
21148;SDS011;10732;51.472;6.466;2023-03-04T07:32:47;8.98;;;2.40;;
21148;SDS011;10732;51.472;6.466;2023-03-04T07:35:12;9.50;;;2.45;;
21148;SDS011;10732;51.472;6.466;2023-03-04T07:37:38;8.63;;;1.90;;
21148;SDS011;10732;51.472;6.466;2023-03-04T07:40:04;12.18;;;2.55;;
21148;SDS011;10732;51.472;6.466;2023-03-04T07:42:32;8.52;;;1.98;;
21148;SDS011;10732;51.472;6.466;2023-03-04T07:44:58;9.25;;;2.28;;
21148;SDS011;10732;51.472;6.466;2023-03-04T07:47:25;5.70;;;2.10;;
21148;SDS011;10732;51.472;6.466;2023-03-04T07:49:51;10.82;;;2.63;;
21148;SDS011;10732;51.472;6.466;2023-03-04T07:52:17;6.90;;;2.53;;
21148;SDS011;10732;51.472;6.466;2023-03-04T07:54:43;9.13;;;2.20;;
21148;SDS011;10732;51.472;6.466;2023-03-04T07:57:08;7.50;;;2.17;;
21148;SDS011;10732;51.472;6.466;2023-03-04T07:59:34;8.23;;;1.90;;
21148;SDS011;10732;51.472;6.466;2023-03-04T08:02:00;13.27;;;2.33;;
21148;SDS011;10732;51.472;6.466;2023-03-04T08:04:25;8.85;;;2.30;;
21148;SDS011;10732;51.472;6.466;2023-03-04T08:06:51;8.63;;;2.33;;
21148;SDS011;10732;51.472;6.466;2023-03-04T08:09:16;7.93;;;2.22;;
21148;SDS011;10732;51.472;6.466;2023-03-04T08:11:42;8.57;;;2.40;;
21148;SDS011;10732;51.472;6.466;2023-03-04T08:14:09;7.82;;;2.50;;
21148;SDS011;10732;51.472;6.466;2023-03-04T08:16:36;7.50;;;1.90;;
21148;SDS011;10732;51.472;6.466;2023-03-04T08:19:02;8.23;;;2.30;;
21148;SDS011;10732;51.472;6.466;2023-03-04T08:21:29;6.63;;;1.88;;
21148;SDS011;10732;51.472;6.466;2023-03-04T08:23:56;5.05;;;1.73;;
21148;SDS011;10732;51.472;6.466;2023-03-04T08:26:30;8.90;;;1.73;;
21148;SDS011;10732;51.472;6.466;2023-03-04T08:28:59;6.57;;;1.70;;
21148;SDS011;10732;51.472;6.466;2023-03-04T08:31:27;6.38;;;2.05;;
21148;SDS011;10732;51.472;6.466;2023-03-04T08:33:52;7.82;;;2.08;;
21148;SDS011;10732;51.472;6.466;2023-03-04T08:36:18;11.07;;;1.90;;
21148;SDS011;10732;51.472;6.466;2023-03-04T08:38:44;6.30;;;1.63;;
21148;SDS011;10732;51.472;6.466;2023-03-04T08:41:11;7.47;;;1.90;;
21148;SDS011;10732;51.472;6.466;2023-03-04T08:43:37;6.20;;;1.90;;
21148;SDS011;10732;51.472;6.466;2023-03-04T08:46:03;6.05;;;1.85;;
21148;SDS011;10732;51.472;6.466;2023-03-04T08:48:30;11.25;;;1.90;;
21148;SDS011;10732;51.472;6.466;2023-03-04T08:50:56;5.90;;;1.70;;
21148;SDS011;10732;51.472;6.466;2023-03-04T08:53:22;6.45;;;1.85;;
21148;SDS011;10732;51.472;6.466;2023-03-04T08:55:47;7.18;;;1.50;;
21148;SDS011;10732;51.472;6.466;2023-03-04T08:58:14;8.88;;;1.95;;
21148;SDS011;10732;51.472;6.466;2023-03-04T09:00:41;6.80;;;1.95;;
21148;SDS011;10732;51.472;6.466;2023-03-04T09:03:09;9.30;;;2.05;;
21148;SDS011;10732;51.472;6.466;2023-03-04T09:05:36;7.05;;;1.88;;
21148;SDS011;10732;51.472;6.466;2023-03-04T09:08:03;9.05;;;1.92;;
21148;SDS011;10732;51.472;6.466;2023-03-04T09:10:28;12.65;;;2.00;;
21148;SDS011;10732;51.472;6.466;2023-03-04T09:12:54;6.10;;;1.50;;
21148;SDS011;10732;51.472;6.466;2023-03-04T09:15:20;4.93;;;1.63;;
21148;SDS011;10732;51.472;6.466;2023-03-04T09:17:45;7.78;;;1.60;;
21148;SDS011;10732;51.472;6.466;2023-03-04T09:20:11;6.72;;;1.83;;
21148;SDS011;10732;51.472;6.466;2023-03-04T09:22:37;4.10;;;1.33;;
21148;SDS011;10732;51.472;6.466;2023-03-04T09:25:03;6.57;;;1.30;;
21148;SDS011;10732;51.472;6.466;2023-03-04T09:27:30;7.30;;;1.45;;
21148;SDS011;10732;51.472;6.466;2023-03-04T09:29:55;6.68;;;1.65;;
21148;SDS011;10732;51.472;6.466;2023-03-04T09:32:21;3.88;;;1.20;;
21148;SDS011;10732;51.472;6.466;2023-03-04T09:34:46;4.13;;;1.20;;
21148;SDS011;10732;51.472;6.466;2023-03-04T09:37:12;5.60;;;1.55;;
21148;SDS011;10732;51.472;6.466;2023-03-04T09:39:38;3.97;;;1.33;;
21148;SDS011;10732;51.472;6.466;2023-03-04T09:42:03;3.75;;;1.27;;
21148;SDS011;10732;51.472;6.466;2023-03-04T09:44:33;7.28;;;1.83;;
21148;SDS011;10732;51.472;6.466;2023-03-04T09:47:04;3.63;;;1.33;;
21148;SDS011;10732;51.472;6.466;2023-03-04T09:49:35;6.78;;;1.80;;
21148;SDS011;10732;51.472;6.466;2023-03-04T09:55:17;4.50;;;1.90;;
21148;SDS011;10732;51.472;6.466;2023-03-04T10:03:14;8.63;;;3.53;;
21148;SDS011;10732;51.472;6.466;2023-03-04T10:05:52;7.95;;;3.85;;
21148;SDS011;10732;51.472;6.466;2023-03-04T10:10:58;10.93;;;3.78;;
21148;SDS011;10732;51.472;6.466;2023-03-04T10:13:30;6.82;;;3.60;;
21148;SDS011;10732;51.472;6.466;2023-03-04T10:16:07;4.53;;;3.08;;
21148;SDS011;10732;51.472;6.466;2023-03-04T10:18:40;12.73;;;7.47;;
21148;SDS011;10732;51.472;6.466;2023-03-04T10:24:17;6.60;;;1.67;;
21148;SDS011;10732;51.472;6.466;2023-03-04T10:26:48;6.28;;;2.70;;
21148;SDS011;10732;51.472;6.466;2023-03-04T10:29:18;6.43;;;2.28;;
21148;SDS011;10732;51.472;6.466;2023-03-04T10:31:46;8.48;;;2.70;;
21148;SDS011;10732;51.472;6.466;2023-03-04T10:34:13;9.30;;;2.10;;
21148;SDS011;10732;51.472;6.466;2023-03-04T10:36:53;5.40;;;1.83;;
21148;SDS011;10732;51.472;6.466;2023-03-04T10:39:27;5.03;;;1.40;;
21148;SDS011;10732;51.472;6.466;2023-03-04T10:42:24;3.28;;;1.40;;
21148;SDS011;10732;51.472;6.466;2023-03-04T10:44:58;3.75;;;1.48;;
21148;SDS011;10732;51.472;6.466;2023-03-04T10:47:28;5.10;;;2.30;;
21148;SDS011;10732;51.472;6.466;2023-03-04T10:49:56;6.45;;;2.25;;
21148;SDS011;10732;51.472;6.466;2023-03-04T10:55:02;5.45;;;2.63;;
21148;SDS011;10732;51.472;6.466;2023-03-04T10:57:37;8.75;;;2.72;;
21148;SDS011;10732;51.472;6.466;2023-03-04T11:05:48;5.82;;;2.40;;
21148;SDS011;10732;51.472;6.466;2023-03-04T11:08:18;3.70;;;2.05;;
21148;SDS011;10732;51.472;6.466;2023-03-04T11:10:46;5.97;;;3.05;;
21148;SDS011;10732;51.472;6.466;2023-03-04T11:18:41;6.93;;;1.80;;
21148;SDS011;10732;51.472;6.466;2023-03-04T11:21:14;4.18;;;1.65;;
21148;SDS011;10732;51.472;6.466;2023-03-04T11:23:44;7.38;;;2.97;;
21148;SDS011;10732;51.472;6.466;2023-03-04T11:26:51;5.75;;;2.38;;
21148;SDS011;10732;51.472;6.466;2023-03-04T11:37:15;4.30;;;2.42;;
21148;SDS011;10732;51.472;6.466;2023-03-04T11:50:50;5.20;;;2.13;;
21148;SDS011;10732;51.472;6.466;2023-03-04T11:53:30;4.90;;;1.27;;
21148;SDS011;10732;51.472;6.466;2023-03-04T11:56:03;4.15;;;1.45;;
21148;SDS011;10732;51.472;6.466;2023-03-04T12:04:16;5.47;;;2.30;;
21148;SDS011;10732;51.472;6.466;2023-03-04T12:07:10;4.57;;;2.25;;
21148;SDS011;10732;51.472;6.466;2023-03-04T12:12:34;5.53;;;2.55;;
21148;SDS011;10732;51.472;6.466;2023-03-04T12:15:38;5.25;;;2.10;;
21148;SDS011;10732;51.472;6.466;2023-03-04T12:32:35;7.72;;;4.30;;
21148;SDS011;10732;51.472;6.466;2023-03-04T12:41:19;1.38;;;1.20;;
21148;SDS011;10732;51.472;6.466;2023-03-04T12:46:26;4.25;;;2.33;;
21148;SDS011;10732;51.472;6.466;2023-03-04T12:59:35;5.15;;;1.50;;
21148;SDS011;10732;51.472;6.466;2023-03-04T13:10:16;1.95;;;1.17;;
21148;SDS011;10732;51.472;6.466;2023-03-04T13:15:18;2.00;;;1.10;;
21148;SDS011;10732;51.472;6.466;2023-03-04T13:17:51;2.75;;;1.25;;
21148;SDS011;10732;51.472;6.466;2023-03-04T13:43:55;1.85;;;1.15;;
21148;SDS011;10732;51.472;6.466;2023-03-04T13:51:31;2.30;;;1.20;;
21148;SDS011;10732;51.472;6.466;2023-03-04T13:56:24;2.70;;;1.38;;
21148;SDS011;10732;51.472;6.466;2023-03-04T13:59:03;3.38;;;1.40;;
21148;SDS011;10732;51.472;6.466;2023-03-04T14:04:11;2.55;;;1.33;;
21148;SDS011;10732;51.472;6.466;2023-03-04T14:06:43;1.85;;;1.20;;
21148;SDS011;10732;51.472;6.466;2023-03-04T14:09:14;2.53;;;1.17;;
21148;SDS011;10732;51.472;6.466;2023-03-04T14:11:44;2.20;;;1.35;;
21148;SDS011;10732;51.472;6.466;2023-03-04T14:14:12;2.25;;;1.40;;
21148;SDS011;10732;51.472;6.466;2023-03-04T14:19:27;1.77;;;1.33;;
21148;SDS011;10732;51.472;6.466;2023-03-04T14:22:19;3.58;;;1.75;;
21148;SDS011;10732;51.472;6.466;2023-03-04T14:24:59;3.92;;;2.00;;
21148;SDS011;10732;51.472;6.466;2023-03-04T14:27:28;3.00;;;1.90;;
21148;SDS011;10732;51.472;6.466;2023-03-04T14:29:58;4.30;;;1.90;;
21148;SDS011;10732;51.472;6.466;2023-03-04T14:32:25;2.92;;;2.10;;
21148;SDS011;10732;51.472;6.466;2023-03-04T14:34:53;2.45;;;1.90;;
21148;SDS011;10732;51.472;6.466;2023-03-04T14:37:26;3.65;;;1.77;;
21148;SDS011;10732;51.472;6.466;2023-03-04T14:40:06;2.63;;;1.70;;
21148;SDS011;10732;51.472;6.466;2023-03-04T14:42:38;4.97;;;1.92;;
21148;SDS011;10732;51.472;6.466;2023-03-04T14:45:10;3.75;;;1.88;;
21148;SDS011;10732;51.472;6.466;2023-03-04T14:47:40;5.22;;;1.95;;
21148;SDS011;10732;51.472;6.466;2023-03-04T14:50:16;2.33;;;1.58;;
21148;SDS011;10732;51.472;6.466;2023-03-04T14:52:45;5.93;;;1.80;;
21148;SDS011;10732;51.472;6.466;2023-03-04T14:57:45;2.05;;;1.25;;
21148;SDS011;10732;51.472;6.466;2023-03-04T15:02:44;4.97;;;1.38;;
21148;SDS011;10732;51.472;6.466;2023-03-04T15:05:24;4.55;;;1.33;;
21148;SDS011;10732;51.472;6.466;2023-03-04T15:07:56;7.38;;;1.80;;
21148;SDS011;10732;51.472;6.466;2023-03-04T15:10:31;5.75;;;1.42;;
21148;SDS011;10732;51.472;6.466;2023-03-04T15:13:02;5.22;;;1.45;;
21148;SDS011;10732;51.472;6.466;2023-03-04T15:15:43;5.35;;;1.70;;
21148;SDS011;10732;51.472;6.466;2023-03-04T15:18:26;3.45;;;1.45;;
21148;SDS011;10732;51.472;6.466;2023-03-04T15:21:37;5.07;;;1.88;;
21148;SDS011;10732;51.472;6.466;2023-03-04T15:23:45;5.00;;;1.63;;
21148;SDS011;10732;51.472;6.466;2023-03-04T15:26:11;10.05;;;1.92;;
21148;SDS011;10732;51.472;6.466;2023-03-04T15:28:38;10.25;;;2.13;;
21148;SDS011;10732;51.472;6.466;2023-03-04T15:31:06;7.32;;;1.83;;
21148;SDS011;10732;51.472;6.466;2023-03-04T15:33:39;4.95;;;1.70;;
21148;SDS011;10732;51.472;6.466;2023-03-04T15:36:05;6.05;;;2.10;;
21148;SDS011;10732;51.472;6.466;2023-03-04T15:38:36;5.60;;;2.10;;
21148;SDS011;10732;51.472;6.466;2023-03-04T15:41:01;9.95;;;2.20;;
21148;SDS011;10732;51.472;6.466;2023-03-04T15:43:27;12.18;;;2.50;;
21148;SDS011;10732;51.472;6.466;2023-03-04T15:45:52;8.45;;;2.22;;
21148;SDS011;10732;51.472;6.466;2023-03-04T15:48:18;8.88;;;2.38;;
21148;SDS011;10732;51.472;6.466;2023-03-04T15:50:58;6.95;;;2.50;;
21148;SDS011;10732;51.472;6.466;2023-03-04T15:55:57;9.75;;;2.40;;
21148;SDS011;10732;51.472;6.466;2023-03-04T15:58:23;11.82;;;2.72;;
21148;SDS011;10732;51.472;6.466;2023-03-04T16:00:50;15.00;;;2.40;;
21148;SDS011;10732;51.472;6.466;2023-03-04T16:03:16;6.28;;;1.95;;
21148;SDS011;10732;51.472;6.466;2023-03-04T16:05:44;8.80;;;1.67;;
21148;SDS011;10732;51.472;6.466;2023-03-04T16:08:12;10.98;;;2.30;;
21148;SDS011;10732;51.472;6.466;2023-03-04T16:10:40;8.80;;;1.88;;
21148;SDS011;10732;51.472;6.466;2023-03-04T16:13:11;9.65;;;2.08;;
21148;SDS011;10732;51.472;6.466;2023-03-04T16:15:38;9.35;;;2.10;;
21148;SDS011;10732;51.472;6.466;2023-03-04T16:18:04;10.40;;;2.10;;
21148;SDS011;10732;51.472;6.466;2023-03-04T16:20:32;10.27;;;1.90;;
21148;SDS011;10732;51.472;6.466;2023-03-04T16:22:58;8.05;;;1.98;;
21148;SDS011;10732;51.472;6.466;2023-03-04T16:25:26;7.82;;;1.90;;
21148;SDS011;10732;51.472;6.466;2023-03-04T16:27:53;9.20;;;2.13;;
21148;SDS011;10732;51.472;6.466;2023-03-04T16:30:26;10.95;;;2.47;;
21148;SDS011;10732;51.472;6.466;2023-03-04T16:32:52;8.00;;;2.15;;
21148;SDS011;10732;51.472;6.466;2023-03-04T16:35:19;9.27;;;2.00;;
21148;SDS011;10732;51.472;6.466;2023-03-04T16:37:45;7.40;;;2.00;;
21148;SDS011;10732;51.472;6.466;2023-03-04T16:40:12;7.72;;;2.08;;
21148;SDS011;10732;51.472;6.466;2023-03-04T16:42:40;8.35;;;2.13;;
21148;SDS011;10732;51.472;6.466;2023-03-04T16:45:07;10.25;;;2.20;;
21148;SDS011;10732;51.472;6.466;2023-03-04T16:47:39;8.65;;;2.20;;
21148;SDS011;10732;51.472;6.466;2023-03-04T16:50:05;9.40;;;1.85;;
21148;SDS011;10732;51.472;6.466;2023-03-04T16:52:32;8.68;;;1.88;;
21148;SDS011;10732;51.472;6.466;2023-03-04T16:54:58;5.28;;;1.70;;
21148;SDS011;10732;51.472;6.466;2023-03-04T16:57:24;11.65;;;2.70;;
21148;SDS011;10732;51.472;6.466;2023-03-04T16:59:52;6.53;;;1.95;;
21148;SDS011;10732;51.472;6.466;2023-03-04T17:02:20;9.77;;;2.25;;
21148;SDS011;10732;51.472;6.466;2023-03-04T17:04:48;9.05;;;2.30;;
21148;SDS011;10732;51.472;6.466;2023-03-04T17:07:14;12.20;;;3.90;;
21148;SDS011;10732;51.472;6.466;2023-03-04T17:09:40;11.40;;;2.60;;
21148;SDS011;10732;51.472;6.466;2023-03-04T17:12:08;10.68;;;2.85;;
21148;SDS011;10732;51.472;6.466;2023-03-04T17:14:35;10.70;;;2.70;;
21148;SDS011;10732;51.472;6.466;2023-03-04T17:17:02;7.97;;;2.03;;